sensor_id;sensor_type;location;lat;lon;timestamp;temperature;humidity
77829;DHT22;67019;51.034;3.728;2023-09-07T00:02:07;21.20;99.90
77829;DHT22;67019;51.034;3.728;2023-09-07T00:04:34;21.20;99.90
77829;DHT22;67019;51.034;3.728;2023-09-07T00:07:03;21.10;99.90
77829;DHT22;67019;51.034;3.728;2023-09-07T00:09:31;21.10;99.90
77829;DHT22;67019;51.034;3.728;2023-09-07T00:11:58;21.80;99.90
77829;DHT22;67019;51.034;3.728;2023-09-07T00:14:26;20.90;99.90
77829;DHT22;67019;51.034;3.728;2023-09-07T00:16:54;21.20;99.90
77829;DHT22;67019;51.034;3.728;2023-09-07T00:19:21;20.90;99.90
77829;DHT22;67019;51.034;3.728;2023-09-07T00:21:49;20.70;99.90
77829;DHT22;67019;51.034;3.728;2023-09-07T00:24:18;20.70;99.90
77829;DHT22;67019;51.034;3.728;2023-09-07T00:26:45;20.40;99.90
77829;DHT22;67019;51.034;3.728;2023-09-07T00:29:13;20.40;99.90
77829;DHT22;67019;51.034;3.728;2023-09-07T00:31:43;20.70;99.90
77829;DHT22;67019;51.034;3.728;2023-09-07T00:34:10;20.80;99.90
77829;DHT22;67019;51.034;3.728;2023-09-07T00:36:37;20.90;99.90
77829;DHT22;67019;51.034;3.728;2023-09-07T00:39:07;20.80;99.90
77829;DHT22;67019;51.034;3.728;2023-09-07T00:41:35;20.80;99.90
77829;DHT22;67019;51.034;3.728;2023-09-07T00:44:03;20.90;99.90
77829;DHT22;67019;51.034;3.728;2023-09-07T00:46:30;20.90;99.90
77829;DHT22;67019;51.034;3.728;2023-09-07T00:49:00;20.70;99.90
77829;DHT22;67019;51.034;3.728;2023-09-07T00:51:28;20.40;99.90
77829;DHT22;67019;51.034;3.728;2023-09-07T00:53:56;20.50;99.90
77829;DHT22;67019;51.034;3.728;2023-09-07T00:56:28;20.50;99.90
77829;DHT22;67019;51.034;3.728;2023-09-07T00:58:56;20.50;99.90
77829;DHT22;67019;51.034;3.728;2023-09-07T01:01:26;20.40;99.90
77829;DHT22;67019;51.034;3.728;2023-09-07T01:03:53;20.20;99.90
77829;DHT22;67019;51.034;3.728;2023-09-07T01:06:25;20.20;99.90
77829;DHT22;67019;51.034;3.728;2023-09-07T01:08:55;20.20;99.90
77829;DHT22;67019;51.034;3.728;2023-09-07T01:11:26;20.10;99.90
77829;DHT22;67019;51.034;3.728;2023-09-07T01:13:53;20.00;99.90
77829;DHT22;67019;51.034;3.728;2023-09-07T01:16:22;19.90;99.90
77829;DHT22;67019;51.034;3.728;2023-09-07T01:18:52;19.80;99.90
77829;DHT22;67019;51.034;3.728;2023-09-07T01:21:21;19.70;99.90
77829;DHT22;67019;51.034;3.728;2023-09-07T01:23:50;19.70;99.90
77829;DHT22;67019;51.034;3.728;2023-09-07T01:26:18;19.60;99.90
77829;DHT22;67019;51.034;3.728;2023-09-07T01:28:46;19.50;99.90
77829;DHT22;67019;51.034;3.728;2023-09-07T01:31:13;19.60;99.90
77829;DHT22;67019;51.034;3.728;2023-09-07T01:33:42;19.60;99.90
77829;DHT22;67019;51.034;3.728;2023-09-07T01:36:09;19.60;99.90
77829;DHT22;67019;51.034;3.728;2023-09-07T01:38:39;19.50;99.90
77829;DHT22;67019;51.034;3.728;2023-09-07T01:41:06;19.40;99.90
77829;DHT22;67019;51.034;3.728;2023-09-07T01:43:35;19.40;99.90
77829;DHT22;67019;51.034;3.728;2023-09-07T01:46:04;19.60;99.90
77829;DHT22;67019;51.034;3.728;2023-09-07T01:48:31;19.70;99.90
77829;DHT22;67019;51.034;3.728;2023-09-07T01:51:01;19.60;99.90
77829;DHT22;67019;51.034;3.728;2023-09-07T01:53:28;19.50;99.90
77829;DHT22;67019;51.034;3.728;2023-09-07T01:55:56;19.50;99.90
77829;DHT22;67019;51.034;3.728;2023-09-07T01:58:25;19.50;99.90
77829;DHT22;67019;51.034;3.728;2023-09-07T02:00:57;19.40;99.90
77829;DHT22;67019;51.034;3.728;2023-09-07T02:03:26;19.30;99.90
77829;DHT22;67019;51.034;3.728;2023-09-07T02:05:53;19.20;99.90
77829;DHT22;67019;51.034;3.728;2023-09-07T02:08:21;19.20;99.90
77829;DHT22;67019;51.034;3.728;2023-09-07T02:10:49;19.00;99.90
77829;DHT22;67019;51.034;3.728;2023-09-07T02:13:17;19.00;99.90
77829;DHT22;67019;51.034;3.728;2023-09-07T02:15:45;19.20;99.90
77829;DHT22;67019;51.034;3.728;2023-09-07T02:18:12;19.10;99.90
77829;DHT22;67019;51.034;3.728;2023-09-07T02:20:40;19.10;99.90
77829;DHT22;67019;51.034;3.728;2023-09-07T02:23:07;19.30;99.90
77829;DHT22;67019;51.034;3.728;2023-09-07T02:25:35;19.20;99.90
77829;DHT22;67019;51.034;3.728;2023-09-07T02:28:03;19.10;99.90
77829;DHT22;67019;51.034;3.728;2023-09-07T02:30:31;19.00;99.90
77829;DHT22;67019;51.034;3.728;2023-09-07T02:32:59;18.80;99.90
77829;DHT22;67019;51.034;3.728;2023-09-07T02:35:26;18.90;99.90
77829;DHT22;67019;51.034;3.728;2023-09-07T02:37:55;19.00;99.90
77829;DHT22;67019;51.034;3.728;2023-09-07T02:40:24;18.90;99.90
77829;DHT22;67019;51.034;3.728;2023-09-07T02:42:52;18.90;99.90
77829;DHT22;67019;51.034;3.728;2023-09-07T02:45:21;18.90;99.90
77829;DHT22;67019;51.034;3.728;2023-09-07T02:47:49;18.90;99.90
77829;DHT22;67019;51.034;3.728;2023-09-07T02:50:17;18.90;99.90
77829;DHT22;67019;51.034;3.728;2023-09-07T02:52:44;18.70;99.90
77829;DHT22;67019;51.034;3.728;2023-09-07T02:55:14;18.80;99.90
77829;DHT22;67019;51.034;3.728;2023-09-07T02:57:42;18.80;99.90
77829;DHT22;67019;51.034;3.728;2023-09-07T03:00:09;18.80;99.90
77829;DHT22;67019;51.034;3.728;2023-09-07T03:02:38;18.80;99.90
77829;DHT22;67019;51.034;3.728;2023-09-07T03:05:06;18.90;99.90
77829;DHT22;67019;51.034;3.728;2023-09-07T03:07:34;18.80;99.90
77829;DHT22;67019;51.034;3.728;2023-09-07T03:10:01;18.50;99.90
77829;DHT22;67019;51.034;3.728;2023-09-07T03:12:29;18.40;99.90
77829;DHT22;67019;51.034;3.728;2023-09-07T03:14:57;18.60;99.90
77829;DHT22;67019;51.034;3.728;2023-09-07T03:17:26;18.60;99.90
77829;DHT22;67019;51.034;3.728;2023-09-07T03:19:53;18.80;99.90
77829;DHT22;67019;51.034;3.728;2023-09-07T03:22:26;18.80;99.90
77829;DHT22;67019;51.034;3.728;2023-09-07T03:24:56;18.70;99.90
77829;DHT22;67019;51.034;3.728;2023-09-07T03:27:23;18.80;99.90
77829;DHT22;67019;51.034;3.728;2023-09-07T03:29:51;18.60;99.90
77829;DHT22;67019;51.034;3.728;2023-09-07T03:32:18;18.80;99.90
77829;DHT22;67019;51.034;3.728;2023-09-07T03:34:46;18.80;99.90
77829;DHT22;67019;51.034;3.728;2023-09-07T03:37:15;18.60;99.90
77829;DHT22;67019;51.034;3.728;2023-09-07T03:39:42;18.70;99.90
77829;DHT22;67019;51.034;3.728;2023-09-07T03:42:10;18.60;99.90
77829;DHT22;67019;51.034;3.728;2023-09-07T03:44:38;18.60;99.90
77829;DHT22;67019;51.034;3.728;2023-09-07T03:47:06;18.50;99.90
77829;DHT22;67019;51.034;3.728;2023-09-07T03:49:35;18.40;99.90
77829;DHT22;67019;51.034;3.728;2023-09-07T03:52:03;18.20;99.90
77829;DHT22;67019;51.034;3.728;2023-09-07T03:54:32;18.50;99.90
77829;DHT22;67019;51.034;3.728;2023-09-07T03:56:59;18.50;99.90
77829;DHT22;67019;51.034;3.728;2023-09-07T03:59:30;18.60;99.90
77829;DHT22;67019;51.034;3.728;2023-09-07T04:01:59;18.50;99.90
77829;DHT22;67019;51.034;3.728;2023-09-07T04:04:26;18.60;99.90
77829;DHT22;67019;51.034;3.728;2023-09-07T04:06:54;18.10;99.90
77829;DHT22;67019;51.034;3.728;2023-09-07T04:09:22;18.20;99.90
77829;DHT22;67019;51.034;3.728;2023-09-07T04:11:51;18.30;99.90
77829;DHT22;67019;51.034;3.728;2023-09-07T04:14:18;18.20;99.90
77829;DHT22;67019;51.034;3.728;2023-09-07T04:16:46;18.40;99.90
77829;DHT22;67019;51.034;3.728;2023-09-07T04:19:13;18.40;99.90
77829;DHT22;67019;51.034;3.728;2023-09-07T04:21:41;18.40;99.90
77829;DHT22;67019;51.034;3.728;2023-09-07T04:24:09;18.40;99.90
77829;DHT22;67019;51.034;3.728;2023-09-07T04:26:37;18.50;99.90
77829;DHT22;67019;51.034;3.728;2023-09-07T04:29:07;18.60;99.90
77829;DHT22;67019;51.034;3.728;2023-09-07T04:31:35;18.10;99.90
77829;DHT22;67019;51.034;3.728;2023-09-07T04:34:02;18.00;99.90
77829;DHT22;67019;51.034;3.728;2023-09-07T04:36:30;18.00;99.90
77829;DHT22;67019;51.034;3.728;2023-09-07T04:38:58;18.10;99.90
77829;DHT22;67019;51.034;3.728;2023-09-07T04:41:25;18.30;99.90
77829;DHT22;67019;51.034;3.728;2023-09-07T04:43:53;18.20;99.90
77829;DHT22;67019;51.034;3.728;2023-09-07T04:46:22;18.50;99.90
77829;DHT22;67019;51.034;3.728;2023-09-07T04:48:53;18.60;99.90
77829;DHT22;67019;51.034;3.728;2023-09-07T04:51:20;18.60;99.90
77829;DHT22;67019;51.034;3.728;2023-09-07T04:53:49;18.40;99.90
77829;DHT22;67019;51.034;3.728;2023-09-07T04:56:16;18.30;99.90
77829;DHT22;67019;51.034;3.728;2023-09-07T04:58:44;18.20;99.90
77829;DHT22;67019;51.034;3.728;2023-09-07T05:01:13;17.90;99.90
77829;DHT22;67019;51.034;3.728;2023-09-07T05:03:42;18.10;99.90
77829;DHT22;67019;51.034;3.728;2023-09-07T05:06:11;18.10;99.90
77829;DHT22;67019;51.034;3.728;2023-09-07T05:08:39;18.30;99.90
77829;DHT22;67019;51.034;3.728;2023-09-07T05:11:08;18.30;99.90
77829;DHT22;67019;51.034;3.728;2023-09-07T05:13:35;18.20;99.90
77829;DHT22;67019;51.034;3.728;2023-09-07T05:16:04;18.10;99.90
77829;DHT22;67019;51.034;3.728;2023-09-07T05:18:32;18.30;99.90
77829;DHT22;67019;51.034;3.728;2023-09-07T05:21:10;18.50;99.90
77829;DHT22;67019;51.034;3.728;2023-09-07T05:23:30;18.50;99.90
77829;DHT22;67019;51.034;3.728;2023-09-07T05:25:58;18.50;99.90
77829;DHT22;67019;51.034;3.728;2023-09-07T05:28:25;18.50;99.90
77829;DHT22;67019;51.034;3.728;2023-09-07T05:30:53;18.50;99.90
77829;DHT22;67019;51.034;3.728;2023-09-07T05:33:22;18.40;99.90
77829;DHT22;67019;51.034;3.728;2023-09-07T05:35:49;18.30;99.90
77829;DHT22;67019;51.034;3.728;2023-09-07T05:38:17;18.20;99.90
77829;DHT22;67019;51.034;3.728;2023-09-07T05:40:45;18.00;99.90
77829;DHT22;67019;51.034;3.728;2023-09-07T05:43:14;18.00;99.90
77829;DHT22;67019;51.034;3.728;2023-09-07T05:45:42;18.40;99.90
77829;DHT22;67019;51.034;3.728;2023-09-07T05:48:10;18.30;99.90
77829;DHT22;67019;51.034;3.728;2023-09-07T05:50:40;18.30;99.90
77829;DHT22;67019;51.034;3.728;2023-09-07T05:53:08;18.20;99.90
77829;DHT22;67019;51.034;3.728;2023-09-07T05:55:38;18.10;99.90
77829;DHT22;67019;51.034;3.728;2023-09-07T05:58:07;18.00;99.90
77829;DHT22;67019;51.034;3.728;2023-09-07T06:00:36;18.10;99.90
77829;DHT22;67019;51.034;3.728;2023-09-07T06:03:09;18.10;99.90
77829;DHT22;67019;51.034;3.728;2023-09-07T06:05:36;18.00;99.90
77829;DHT22;67019;51.034;3.728;2023-09-07T06:08:06;18.00;99.90
77829;DHT22;67019;51.034;3.728;2023-09-07T06:10:34;18.10;99.90
77829;DHT22;67019;51.034;3.728;2023-09-07T06:13:02;18.20;99.90
77829;DHT22;67019;51.034;3.728;2023-09-07T06:15:30;18.30;99.90
77829;DHT22;67019;51.034;3.728;2023-09-07T06:17:59;18.20;99.90
77829;DHT22;67019;51.034;3.728;2023-09-07T06:20:26;18.20;99.90
77829;DHT22;67019;51.034;3.728;2023-09-07T06:22:54;18.30;99.90
77829;DHT22;67019;51.034;3.728;2023-09-07T06:25:21;18.30;99.90
77829;DHT22;67019;51.034;3.728;2023-09-07T06:27:49;18.40;99.90
77829;DHT22;67019;51.034;3.728;2023-09-07T06:30:18;18.60;99.90
77829;DHT22;67019;51.034;3.728;2023-09-07T06:32:47;18.80;99.90
77829;DHT22;67019;51.034;3.728;2023-09-07T06:35:16;18.90;99.90
77829;DHT22;67019;51.034;3.728;2023-09-07T06:37:45;18.90;99.90
77829;DHT22;67019;51.034;3.728;2023-09-07T06:40:12;19.10;99.90
77829;DHT22;67019;51.034;3.728;2023-09-07T06:42:41;19.00;99.90
77829;DHT22;67019;51.034;3.728;2023-09-07T06:45:09;19.00;99.90
77829;DHT22;67019;51.034;3.728;2023-09-07T06:47:38;19.00;99.90
77829;DHT22;67019;51.034;3.728;2023-09-07T06:50:07;19.10;99.90
77829;DHT22;67019;51.034;3.728;2023-09-07T06:52:35;19.10;99.90
77829;DHT22;67019;51.034;3.728;2023-09-07T06:55:03;19.10;99.90
77829;DHT22;67019;51.034;3.728;2023-09-07T06:57:30;19.10;99.90
77829;DHT22;67019;51.034;3.728;2023-09-07T06:59:58;19.10;99.90
77829;DHT22;67019;51.034;3.728;2023-09-07T07:02:25;19.40;99.90
77829;DHT22;67019;51.034;3.728;2023-09-07T07:04:54;19.40;99.90
77829;DHT22;67019;51.034;3.728;2023-09-07T07:07:22;19.50;99.90
77829;DHT22;67019;51.034;3.728;2023-09-07T07:09:49;19.60;99.90
77829;DHT22;67019;51.034;3.728;2023-09-07T07:12:19;19.70;99.90
77829;DHT22;67019;51.034;3.728;2023-09-07T07:14:47;19.80;99.90
77829;DHT22;67019;51.034;3.728;2023-09-07T07:17:15;19.90;99.90
77829;DHT22;67019;51.034;3.728;2023-09-07T07:19:42;19.90;99.90
77829;DHT22;67019;51.034;3.728;2023-09-07T07:22:10;19.90;99.90
77829;DHT22;67019;51.034;3.728;2023-09-07T07:24:37;20.00;99.90
77829;DHT22;67019;51.034;3.728;2023-09-07T07:27:08;20.20;99.90
77829;DHT22;67019;51.034;3.728;2023-09-07T07:29:38;20.40;99.90
77829;DHT22;67019;51.034;3.728;2023-09-07T07:32:07;20.40;99.90
77829;DHT22;67019;51.034;3.728;2023-09-07T07:34:37;20.50;99.90
77829;DHT22;67019;51.034;3.728;2023-09-07T07:37:05;20.50;99.90
77829;DHT22;67019;51.034;3.728;2023-09-07T07:39:32;20.70;99.90
77829;DHT22;67019;51.034;3.728;2023-09-07T07:42:02;20.70;99.90
77829;DHT22;67019;51.034;3.728;2023-09-07T07:44:31;21.00;99.90
77829;DHT22;67019;51.034;3.728;2023-09-07T07:46:58;21.00;99.90
77829;DHT22;67019;51.034;3.728;2023-09-07T07:49:26;21.10;99.90
77829;DHT22;67019;51.034;3.728;2023-09-07T07:51:54;21.30;99.90
77829;DHT22;67019;51.034;3.728;2023-09-07T07:54:24;21.30;99.90
77829;DHT22;67019;51.034;3.728;2023-09-07T07:56:51;21.40;99.90
77829;DHT22;67019;51.034;3.728;2023-09-07T07:59:20;21.60;99.90
77829;DHT22;67019;51.034;3.728;2023-09-07T08:01:47;21.40;99.90
77829;DHT22;67019;51.034;3.728;2023-09-07T08:04:16;21.40;99.90
77829;DHT22;67019;51.034;3.728;2023-09-07T08:06:43;21.60;99.90
77829;DHT22;67019;51.034;3.728;2023-09-07T08:09:30;21.70;99.90
77829;DHT22;67019;51.034;3.728;2023-09-07T08:11:59;22.00;99.90
77829;DHT22;67019;51.034;3.728;2023-09-07T08:14:30;22.10;99.90
77829;DHT22;67019;51.034;3.728;2023-09-07T08:16:58;22.30;99.90
77829;DHT22;67019;51.034;3.728;2023-09-07T08:19:26;22.40;99.90
77829;DHT22;67019;51.034;3.728;2023-09-07T08:21:54;22.40;99.90
77829;DHT22;67019;51.034;3.728;2023-09-07T08:24:22;22.30;99.90
77829;DHT22;67019;51.034;3.728;2023-09-07T08:26:49;22.40;99.90
77829;DHT22;67019;51.034;3.728;2023-09-07T08:29:18;22.60;99.90
77829;DHT22;67019;51.034;3.728;2023-09-07T08:31:50;22.70;99.90
77829;DHT22;67019;51.034;3.728;2023-09-07T08:34:20;22.90;99.90
77829;DHT22;67019;51.034;3.728;2023-09-07T08:36:50;22.90;99.90
77829;DHT22;67019;51.034;3.728;2023-09-07T08:39:20;23.00;99.90
77829;DHT22;67019;51.034;3.728;2023-09-07T08:41:49;23.10;99.90
77829;DHT22;67019;51.034;3.728;2023-09-07T08:44:18;23.10;99.90
77829;DHT22;67019;51.034;3.728;2023-09-07T08:46:52;23.20;99.90
77829;DHT22;67019;51.034;3.728;2023-09-07T08:49:20;23.30;99.90
77829;DHT22;67019;51.034;3.728;2023-09-07T08:51:50;23.30;99.90
77829;DHT22;67019;51.034;3.728;2023-09-07T08:54:21;23.50;99.90
77829;DHT22;67019;51.034;3.728;2023-09-07T08:56:49;23.60;99.90
77829;DHT22;67019;51.034;3.728;2023-09-07T08:59:18;23.60;99.80
77829;DHT22;67019;51.034;3.728;2023-09-07T09:01:47;23.50;99.90
77829;DHT22;67019;51.034;3.728;2023-09-07T09:04:14;23.50;99.90
77829;DHT22;67019;51.034;3.728;2023-09-07T09:06:42;23.60;99.90
77829;DHT22;67019;51.034;3.728;2023-09-07T09:09:10;23.80;99.90
77829;DHT22;67019;51.034;3.728;2023-09-07T09:11:39;23.90;99.90
77829;DHT22;67019;51.034;3.728;2023-09-07T09:14:07;24.00;99.90
77829;DHT22;67019;51.034;3.728;2023-09-07T09:16:34;23.90;99.90
77829;DHT22;67019;51.034;3.728;2023-09-07T09:19:02;24.20;99.90
77829;DHT22;67019;51.034;3.728;2023-09-07T09:21:31;24.30;99.50
77829;DHT22;67019;51.034;3.728;2023-09-07T09:23:59;24.30;99.00
77829;DHT22;67019;51.034;3.728;2023-09-07T09:26:27;25.30;99.30
77829;DHT22;67019;51.034;3.728;2023-09-07T09:28:56;24.50;98.80
77829;DHT22;67019;51.034;3.728;2023-09-07T09:31:24;24.50;98.90
77829;DHT22;67019;51.034;3.728;2023-09-07T09:37:16;24.60;98.70
77829;DHT22;67019;51.034;3.728;2023-09-07T09:43:07;25.20;97.50
77829;DHT22;67019;51.034;3.728;2023-09-07T09:45:35;25.50;97.60
77829;DHT22;67019;51.034;3.728;2023-09-07T09:48:04;25.40;97.70
77829;DHT22;67019;51.034;3.728;2023-09-07T09:50:33;25.50;97.10
77829;DHT22;67019;51.034;3.728;2023-09-07T09:53:06;25.60;97.00
77829;DHT22;67019;51.034;3.728;2023-09-07T09:55:34;25.50;97.20
77829;DHT22;67019;51.034;3.728;2023-09-07T09:58:02;25.60;97.40
77829;DHT22;67019;51.034;3.728;2023-09-07T10:00:31;25.90;96.70
77829;DHT22;67019;51.034;3.728;2023-09-07T10:03:13;26.00;96.50
77829;DHT22;67019;51.034;3.728;2023-09-07T10:05:33;25.90;96.50
77829;DHT22;67019;51.034;3.728;2023-09-07T10:08:07;25.90;96.10
77829;DHT22;67019;51.034;3.728;2023-09-07T10:10:35;26.00;96.10
77829;DHT22;67019;51.034;3.728;2023-09-07T10:13:03;26.00;96.40
77829;DHT22;67019;51.034;3.728;2023-09-07T10:15:32;26.20;96.00
77829;DHT22;67019;51.034;3.728;2023-09-07T10:18:09;26.30;95.80
77829;DHT22;67019;51.034;3.728;2023-09-07T10:20:49;26.40;95.40
77829;DHT22;67019;51.034;3.728;2023-09-07T10:23:39;26.40;95.10
77829;DHT22;67019;51.034;3.728;2023-09-07T10:26:15;26.30;95.60
77829;DHT22;67019;51.034;3.728;2023-09-07T10:28:46;26.40;95.60
77829;DHT22;67019;51.034;3.728;2023-09-07T10:31:18;26.70;94.70
77829;DHT22;67019;51.034;3.728;2023-09-07T10:33:46;26.50;94.80
77829;DHT22;67019;51.034;3.728;2023-09-07T10:36:27;26.50;94.30
77829;DHT22;67019;51.034;3.728;2023-09-07T10:39:01;26.30;94.70
77829;DHT22;67019;51.034;3.728;2023-09-07T10:41:25;26.20;95.10
77829;DHT22;67019;51.034;3.728;2023-09-07T10:43:55;26.10;95.40
77829;DHT22;67019;51.034;3.728;2023-09-07T10:46:24;26.30;95.00
77829;DHT22;67019;51.034;3.728;2023-09-07T10:48:53;26.40;94.80
77829;DHT22;67019;51.034;3.728;2023-09-07T10:51:22;26.40;94.70
77829;DHT22;67019;51.034;3.728;2023-09-07T10:54:22;26.40;94.40
77829;DHT22;67019;51.034;3.728;2023-09-07T10:56:49;26.50;93.60
77829;DHT22;67019;51.034;3.728;2023-09-07T10:59:17;26.60;93.20
77829;DHT22;67019;51.034;3.728;2023-09-07T11:01:45;26.60;93.10
77829;DHT22;67019;51.034;3.728;2023-09-07T11:07:21;26.80;92.80
77829;DHT22;67019;51.034;3.728;2023-09-07T11:09:51;26.90;92.80
77829;DHT22;67019;51.034;3.728;2023-09-07T11:12:40;27.00;93.00
77829;DHT22;67019;51.034;3.728;2023-09-07T11:15:12;27.10;92.70
77829;DHT22;67019;51.034;3.728;2023-09-07T11:17:39;27.00;92.50
77829;DHT22;67019;51.034;3.728;2023-09-07T11:20:08;27.10;92.20
77829;DHT22;67019;51.034;3.728;2023-09-07T11:22:38;27.30;92.30
77829;DHT22;67019;51.034;3.728;2023-09-07T11:25:06;27.30;92.00
77829;DHT22;67019;51.034;3.728;2023-09-07T11:27:34;27.30;92.70
77829;DHT22;67019;51.034;3.728;2023-09-07T11:30:04;27.50;91.50
77829;DHT22;67019;51.034;3.728;2023-09-07T11:32:34;27.30;91.80
77829;DHT22;67019;51.034;3.728;2023-09-07T11:35:02;27.30;91.90
77829;DHT22;67019;51.034;3.728;2023-09-07T11:37:32;27.50;91.90
77829;DHT22;67019;51.034;3.728;2023-09-07T11:40:02;27.70;91.20
77829;DHT22;67019;51.034;3.728;2023-09-07T11:42:31;27.70;90.80
77829;DHT22;67019;51.034;3.728;2023-09-07T11:44:58;27.70;91.40
77829;DHT22;67019;51.034;3.728;2023-09-07T11:47:26;27.80;91.00
77829;DHT22;67019;51.034;3.728;2023-09-07T11:49:56;27.90;92.00
77829;DHT22;67019;51.034;3.728;2023-09-07T11:52:23;27.70;92.80
77829;DHT22;67019;51.034;3.728;2023-09-07T11:54:50;27.80;91.20
77829;DHT22;67019;51.034;3.728;2023-09-07T11:57:18;27.70;90.90
77829;DHT22;67019;51.034;3.728;2023-09-07T11:59:46;27.70;92.30
77829;DHT22;67019;51.034;3.728;2023-09-07T12:02:14;27.80;92.40
77829;DHT22;67019;51.034;3.728;2023-09-07T12:04:44;27.50;93.00
77829;DHT22;67019;51.034;3.728;2023-09-07T12:07:13;27.80;92.50
77829;DHT22;67019;51.034;3.728;2023-09-07T12:09:40;28.20;91.80
77829;DHT22;67019;51.034;3.728;2023-09-07T12:15:12;28.00;91.70
77829;DHT22;67019;51.034;3.728;2023-09-07T12:17:41;28.10;91.00
77829;DHT22;67019;51.034;3.728;2023-09-07T12:23:12;28.20;91.40
77829;DHT22;67019;51.034;3.728;2023-09-07T12:25:41;28.10;91.20
77829;DHT22;67019;51.034;3.728;2023-09-07T12:48:21;28.50;90.20
77829;DHT22;67019;51.034;3.728;2023-09-07T13:14:23;28.60;84.20
77829;DHT22;67019;51.034;3.728;2023-09-07T13:16:51;28.40;83.50
77829;DHT22;67019;51.034;3.728;2023-09-07T13:19:20;28.50;83.50
77829;DHT22;67019;51.034;3.728;2023-09-07T13:21:48;28.70;82.60
77829;DHT22;67019;51.034;3.728;2023-09-07T13:24:16;28.70;83.70
77829;DHT22;67019;51.034;3.728;2023-09-07T13:26:47;28.60;84.20
77829;DHT22;67019;51.034;3.728;2023-09-07T13:29:15;28.70;84.10
77829;DHT22;67019;51.034;3.728;2023-09-07T13:32:14;28.70;84.90
77829;DHT22;67019;51.034;3.728;2023-09-07T13:34:42;28.70;83.30
77829;DHT22;67019;51.034;3.728;2023-09-07T13:37:09;28.50;83.70
77829;DHT22;67019;51.034;3.728;2023-09-07T13:46:31;28.60;84.20
77829;DHT22;67019;51.034;3.728;2023-09-07T13:49:00;28.80;84.40
77829;DHT22;67019;51.034;3.728;2023-09-07T13:51:28;28.60;84.80
77829;DHT22;67019;51.034;3.728;2023-09-07T13:54:10;28.70;85.10
77829;DHT22;67019;51.034;3.728;2023-09-07T13:56:38;28.70;84.70
77829;DHT22;67019;51.034;3.728;2023-09-07T13:59:08;28.80;85.20
77829;DHT22;67019;51.034;3.728;2023-09-07T14:01:36;28.90;84.30
77829;DHT22;67019;51.034;3.728;2023-09-07T14:04:04;29.10;84.40
77829;DHT22;67019;51.034;3.728;2023-09-07T14:07:03;29.30;83.60
77829;DHT22;67019;51.034;3.728;2023-09-07T14:09:33;29.40;83.30
77829;DHT22;67019;51.034;3.728;2023-09-07T14:12:00;29.40;83.10
77829;DHT22;67019;51.034;3.728;2023-09-07T14:14:31;29.40;83.60
77829;DHT22;67019;51.034;3.728;2023-09-07T14:16:57;29.40;84.40
77829;DHT22;67019;51.034;3.728;2023-09-07T14:19:27;29.60;82.80
77829;DHT22;67019;51.034;3.728;2023-09-07T14:22:11;29.80;81.80
77829;DHT22;67019;51.034;3.728;2023-09-07T14:24:40;30.50;80.70
77829;DHT22;67019;51.034;3.728;2023-09-07T14:27:11;30.70;80.70
77829;DHT22;67019;51.034;3.728;2023-09-07T14:29:43;31.20;79.40
77829;DHT22;67019;51.034;3.728;2023-09-07T14:35:48;31.40;78.00
77829;DHT22;67019;51.034;3.728;2023-09-07T14:41:37;30.60;79.00
77829;DHT22;67019;51.034;3.728;2023-09-07T14:44:04;30.50;79.40
77829;DHT22;67019;51.034;3.728;2023-09-07T14:46:38;31.10;77.90
77829;DHT22;67019;51.034;3.728;2023-09-07T14:49:11;31.50;76.40
77829;DHT22;67019;51.034;3.728;2023-09-07T14:51:39;31.70;75.50
77829;DHT22;67019;51.034;3.728;2023-09-07T14:54:31;32.30;74.20
77829;DHT22;67019;51.034;3.728;2023-09-07T15:00:47;31.50;73.80
77829;DHT22;67019;51.034;3.728;2023-09-07T15:09:51;32.60;71.00
77829;DHT22;67019;51.034;3.728;2023-09-07T15:12:19;32.60;72.60
77829;DHT22;67019;51.034;3.728;2023-09-07T15:14:46;33.70;70.90
77829;DHT22;67019;51.034;3.728;2023-09-07T15:17:43;33.40;70.10
77829;DHT22;67019;51.034;3.728;2023-09-07T15:27:23;32.70;70.90
77829;DHT22;67019;51.034;3.728;2023-09-07T15:29:52;33.50;69.60
77829;DHT22;67019;51.034;3.728;2023-09-07T15:32:20;33.40;68.80
77829;DHT22;67019;51.034;3.728;2023-09-07T15:34:47;33.10;69.50
77829;DHT22;67019;51.034;3.728;2023-09-07T15:37:33;32.50;70.90
77829;DHT22;67019;51.034;3.728;2023-09-07T16:05:53;31.90;70.40
77829;DHT22;67019;51.034;3.728;2023-09-07T16:08:22;32.30;69.20
77829;DHT22;67019;51.034;3.728;2023-09-07T16:10:56;32.30;70.10
77829;DHT22;67019;51.034;3.728;2023-09-07T16:13:28;32.40;69.80
77829;DHT22;67019;51.034;3.728;2023-09-07T16:15:57;32.20;69.70
77829;DHT22;67019;51.034;3.728;2023-09-07T16:18:26;32.40;69.80
77829;DHT22;67019;51.034;3.728;2023-09-07T16:20:57;32.90;69.20
77829;DHT22;67019;51.034;3.728;2023-09-07T16:23:25;33.50;67.90
77829;DHT22;67019;51.034;3.728;2023-09-07T16:25:53;32.70;69.30
77829;DHT22;67019;51.034;3.728;2023-09-07T16:28:22;32.20;70.10
77829;DHT22;67019;51.034;3.728;2023-09-07T16:30:52;32.90;69.20
77829;DHT22;67019;51.034;3.728;2023-09-07T16:33:19;33.10;68.20
77829;DHT22;67019;51.034;3.728;2023-09-07T16:35:48;33.40;67.90
77829;DHT22;67019;51.034;3.728;2023-09-07T16:38:18;33.50;68.10
77829;DHT22;67019;51.034;3.728;2023-09-07T16:40:52;33.40;67.70
77829;DHT22;67019;51.034;3.728;2023-09-07T16:43:19;33.50;67.60
77829;DHT22;67019;51.034;3.728;2023-09-07T16:48:35;33.00;67.90
77829;DHT22;67019;51.034;3.728;2023-09-07T16:51:03;32.20;69.90
77829;DHT22;67019;51.034;3.728;2023-09-07T16:53:30;32.10;70.60
77829;DHT22;67019;51.034;3.728;2023-09-07T16:55:58;31.30;71.90
77829;DHT22;67019;51.034;3.728;2023-09-07T16:58:26;31.00;72.80
77829;DHT22;67019;51.034;3.728;2023-09-07T17:00:54;31.00;73.50
77829;DHT22;67019;51.034;3.728;2023-09-07T17:03:21;30.90;73.40
77829;DHT22;67019;51.034;3.728;2023-09-07T17:05:49;30.50;74.10
77829;DHT22;67019;51.034;3.728;2023-09-07T17:08:18;30.40;75.20
77829;DHT22;67019;51.034;3.728;2023-09-07T17:10:45;30.20;75.60
77829;DHT22;67019;51.034;3.728;2023-09-07T17:13:17;30.00;75.90
77829;DHT22;67019;51.034;3.728;2023-09-07T17:15:50;29.80;76.40
77829;DHT22;67019;51.034;3.728;2023-09-07T17:18:18;29.80;76.60
77829;DHT22;67019;51.034;3.728;2023-09-07T17:20:49;29.70;77.00
77829;DHT22;67019;51.034;3.728;2023-09-07T17:23:16;29.80;76.60
77829;DHT22;67019;51.034;3.728;2023-09-07T17:25:45;29.70;78.00
77829;DHT22;67019;51.034;3.728;2023-09-07T17:28:13;29.50;79.50
77829;DHT22;67019;51.034;3.728;2023-09-07T17:30:42;29.20;81.10
77829;DHT22;67019;51.034;3.728;2023-09-07T17:33:15;29.10;82.30
77829;DHT22;67019;51.034;3.728;2023-09-07T17:35:39;29.00;82.70
77829;DHT22;67019;51.034;3.728;2023-09-07T17:38:07;28.90;82.70
77829;DHT22;67019;51.034;3.728;2023-09-07T17:40:34;28.70;83.80
77829;DHT22;67019;51.034;3.728;2023-09-07T17:43:03;28.80;84.60